Aérodrome :
LOGIN :

S'inscrire | Disclaimer

   EN    FR    IT 

 










Légende :    VFR   VFR Marginal   IFR   IFR Intensif   IFR Très Intensif
Visi : 
Plafond : 
>= 8 km
>= 3000ft
5 à 8 km
1000 à 3000 ft
1500m à 5 km
500 à 1000 ft
800 à 1500m
200 à 500 ft
< 800m
< 200 ft
Symboles :   Orages  Brouillard  Fortes neiges  Fortes précipitations  Vent > 20 kt
SIGMETs :   Divers  Orages  Givrage  Turbulence  Onde Orograph.  Cendres Volcan.






- Altitude de l'aérodrome : 36 ft
- Code IATA : RIX


EVRA - Riga

DERNIER METAR :
  • 251220Z 13006KT 9999 -RASN OVC014 02/M00 Q0995 R18/190095 NOSIG

METARs EXPIRÉS :
  • 251150Z 13007KT 100V160 9999 BKN014 OVC026 02/M01 Q0995 R18/190095 NOSIG
  • 251120Z 13008KT 9999 SCT014 BKN019 02/M01 Q0996 R18/190095 BECMG BKN014
  • 251050Z 12005KT 100V190 9999 FEW022 BKN047 02/M01 Q0997 R18/190095 NOSIG
  • 251020Z 13007KT 100V160 9999 BKN033 01/M01 Q0997 R18/190095 NOSIG
  • 250950Z 13007KT 100V160 9999 FEW020 BKN034 01/M01 Q0998 R18/190095 NOSIG

TAF AMD TAF EVRA
Valide du 25 à 12h jusqu'au 26 à 12h UTC


251107Z 2512/2612 14007KT 9999 BKN013
BECMG 2514/2516 BKN005 OVC010
TEMPO 2515/2524 1500 RASN BKN003 OVC005
BECMG 2521/2523 20007KT
BECMG 2602/2604 BKN020



MET'MAP, la Météo Aéronautique d'un coup d'oeil ! - Copyright ORBIFLY Décembre 2007 - Disclaimer

ORBIFLY MET'MAP TEAM :

Programmation & Développement : Alexandra Zaïnal
Sur une idée originale de : Baudouin d'Aumeries
Assistance à la programmation : Marc-Olivier Méhu
Soutien technique & logistique : Manuel Goepfert

Contact : metmap@orbifly.com




SOURCES & CREDITS :

   NOAA